createdAt,value
2022-09-12T00:01:05.584Z,17.57
2022-09-12T00:03:33.525Z,17.54
2022-09-12T00:06:01.465Z,17.56
2022-09-12T00:08:29.348Z,17.46
2022-09-12T00:10:58.525Z,17.50
2022-09-12T00:13:26.324Z,17.41
2022-09-12T00:15:54.162Z,17.43
2022-09-12T00:18:21.991Z,17.39
2022-09-12T00:20:50.154Z,17.35
2022-09-12T00:23:18.032Z,17.40
2022-09-12T00:25:47.676Z,17.49
2022-09-12T00:28:19.107Z,17.49
2022-09-12T00:30:49.070Z,17.51
2022-09-12T00:33:18.832Z,17.44
2022-09-12T00:35:48.498Z,17.37
2022-09-12T00:38:17.844Z,17.29
2022-09-12T00:40:45.815Z,17.18
2022-09-12T00:43:16.628Z,17.11
2022-09-12T00:45:45.025Z,17.14
2022-09-12T00:48:24.435Z,17.11
2022-09-12T00:50:52.435Z,17.06
2022-09-12T00:53:20.386Z,17.09
2022-09-12T00:55:52.308Z,17.12
2022-09-12T00:58:24.378Z,17.06
2022-09-12T01:00:52.769Z,17.04
2022-09-12T01:03:23.337Z,16.97
2022-09-12T01:06:00.701Z,16.89
2022-09-12T01:08:30.316Z,16.89
2022-09-12T01:10:58.758Z,16.88
2022-09-12T01:13:29.108Z,16.96
2022-09-12T01:15:57.447Z,16.86
2022-09-12T01:18:32.615Z,16.87
2022-09-12T01:21:12.499Z,16.84
2022-09-12T01:24:25.291Z,16.95
2022-09-12T01:27:25.744Z,16.99
2022-09-12T01:30:31.571Z,17.00
2022-09-12T01:33:31.726Z,16.95
2022-09-12T01:36:17.145Z,16.99
2022-09-12T01:38:49.999Z,17.01
2022-09-12T01:41:26.060Z,16.92
2022-09-12T01:44:01.767Z,16.70
2022-09-12T01:46:36.839Z,16.72
2022-09-12T01:49:12.890Z,16.66
2022-09-12T01:51:45.446Z,16.61
2022-09-12T01:54:18.480Z,16.52
2022-09-12T01:56:50.903Z,16.59
2022-09-12T01:59:24.986Z,16.51
2022-09-12T02:02:00.518Z,16.53
2022-09-12T02:04:34.264Z,16.52
2022-09-12T02:07:09.720Z,16.55
2022-09-12T02:09:42.799Z,16.50
2022-09-12T02:12:15.056Z,16.40
2022-09-12T02:14:47.482Z,16.41
2022-09-12T02:17:21.055Z,16.39
2022-09-12T02:19:53.975Z,16.48
2022-09-12T02:22:26.371Z,16.63
2022-09-12T02:24:59.913Z,16.53
2022-09-12T02:27:34.704Z,16.50
2022-09-12T02:30:02.675Z,16.37
2022-09-12T02:32:39.131Z,16.30
2022-09-12T02:35:12.124Z,16.34
2022-09-12T02:37:57.147Z,16.42
2022-09-12T02:40:25.819Z,16.39
2022-09-12T02:42:53.877Z,16.46
2022-09-12T02:45:23.254Z,16.20
2022-09-12T02:48:28.548Z,16.25
2022-09-12T02:50:57.355Z,16.40
2022-09-12T02:53:28.506Z,16.39
2022-09-12T02:55:56.571Z,16.37
2022-09-12T02:58:27.053Z,16.22
2022-09-12T03:01:06.081Z,16.14
2022-09-12T03:03:53.623Z,16.30
2022-09-12T03:06:31.970Z,16.33
2022-09-12T03:09:10.488Z,16.31
2022-09-12T03:11:52.077Z,16.30
2022-09-12T03:14:35.685Z,16.36
2022-09-12T03:17:09.141Z,16.33
2022-09-12T03:19:47.515Z,16.30
2022-09-12T03:22:21.694Z,16.23
2022-09-12T03:24:55.419Z,16.15
2022-09-12T03:27:31.092Z,16.17
2022-09-12T03:30:00.134Z,16.16
2022-09-12T03:32:45.297Z,16.01
2022-09-12T03:35:17.928Z,16.14
2022-09-12T03:37:48.626Z,16.13
2022-09-12T03:40:16.820Z,16.16
2022-09-12T03:42:44.814Z,16.19
2022-09-12T03:45:13.084Z,16.12
2022-09-12T03:47:41.306Z,16.10
2022-09-12T03:50:09.653Z,15.98
2022-09-12T03:52:38.852Z,16.11
2022-09-12T03:55:07.848Z,16.12
2022-09-12T03:57:35.697Z,16.08
2022-09-12T04:00:04.847Z,16.01
2022-09-12T04:02:40.438Z,16.05
2022-09-12T04:05:08.645Z,15.99
2022-09-12T04:07:37.849Z,15.97
2022-09-12T04:10:06.436Z,15.96
2022-09-12T04:12:35.570Z,15.99
2022-09-12T04:15:03.474Z,15.96
2022-09-12T04:17:31.350Z,15.96
2022-09-12T04:19:59.157Z,15.81
2022-09-12T04:22:27.012Z,15.89
2022-09-12T04:24:56.274Z,15.93
2022-09-12T04:27:24.105Z,15.89
2022-09-12T04:29:51.953Z,15.96
2022-09-12T04:32:20.011Z,15.96
2022-09-12T04:34:47.865Z,15.99
2022-09-12T04:37:16.841Z,15.95
2022-09-12T04:39:44.776Z,15.99
2022-09-12T04:42:13.996Z,16.03
2022-09-12T04:44:41.852Z,15.98
2022-09-12T04:47:09.703Z,16.03
2022-09-12T04:49:37.694Z,16.02
2022-09-12T04:52:05.695Z,16.06
2022-09-12T04:54:34.796Z,15.96
2022-09-12T04:57:02.631Z,16.03
2022-09-12T04:59:31.876Z,16.01
2022-09-12T05:01:59.883Z,16.07
2022-09-12T05:04:27.830Z,16.11
2022-09-12T05:06:55.667Z,16.14
2022-09-12T05:09:23.600Z,16.14
2022-09-12T05:12:06.881Z,15.87
2022-09-12T05:14:36.256Z,16.02
2022-09-12T05:17:06.018Z,15.96
2022-09-12T05:19:34.106Z,16.07
2022-09-12T05:22:02.496Z,16.08
2022-09-12T05:24:30.436Z,16.16
2022-09-12T05:26:58.253Z,16.05
2022-09-12T05:29:26.285Z,16.06
2022-09-12T05:31:55.528Z,16.05
2022-09-12T05:34:23.687Z,16.13
2022-09-12T05:36:51.519Z,16.07
2022-09-12T05:39:19.538Z,16.23
2022-09-12T05:41:47.535Z,16.21
2022-09-12T05:44:15.905Z,16.31
2022-09-12T05:46:45.471Z,16.29
2022-09-12T05:49:14.872Z,16.13
2022-09-12T05:51:44.468Z,16.25
2022-09-12T05:54:14.349Z,16.25
2022-09-12T05:56:44.308Z,16.39
2022-09-12T05:59:14.234Z,16.41
2022-09-12T06:01:42.330Z,16.39
2022-09-12T06:04:10.723Z,16.55
2022-09-12T06:06:43.494Z,16.47
2022-09-12T06:09:12.042Z,16.46
2022-09-12T06:11:41.867Z,16.53
2022-09-12T06:14:11.674Z,16.52
2022-09-12T06:16:40.735Z,16.57
2022-09-12T06:19:13.902Z,16.74
2022-09-12T06:21:43.760Z,16.79
2022-09-12T06:24:12.093Z,16.85
2022-09-12T06:26:40.017Z,16.85
2022-09-12T06:29:08.478Z,16.54
2022-09-12T06:31:38.799Z,16.74
2022-09-12T06:34:08.432Z,16.78
2022-09-12T06:36:38.880Z,16.69
2022-09-12T06:39:11.038Z,16.84
2022-09-12T06:41:43.522Z,16.86
2022-09-12T06:44:14.016Z,17.11
2022-09-12T06:46:41.906Z,17.14
2022-09-12T06:49:10.051Z,17.08
2022-09-12T06:51:38.024Z,17.31
2022-09-12T06:54:06.464Z,17.30
2022-09-12T06:56:35.965Z,17.44
2022-09-12T06:59:03.819Z,17.43
2022-09-12T07:01:33.180Z,17.70
2022-09-12T07:04:03.097Z,17.60
2022-09-12T07:06:32.592Z,17.91
2022-09-12T07:09:01.310Z,17.77
2022-09-12T07:11:31.850Z,17.94
2022-09-12T07:14:03.123Z,17.82
2022-09-12T07:16:31.143Z,17.95
2022-09-12T07:19:01.349Z,18.05
2022-09-12T07:21:29.947Z,17.91
2022-09-12T07:23:58.785Z,18.03
2022-09-12T07:26:29.487Z,18.04
2022-09-12T07:29:18.643Z,18.35
2022-09-12T07:31:48.417Z,18.51
2022-09-12T07:34:17.935Z,18.06
2022-09-12T07:36:45.736Z,18.59
2022-09-12T07:39:13.584Z,18.59
2022-09-12T07:41:41.865Z,18.22
2022-09-12T07:44:09.756Z,18.35
2022-09-12T07:46:37.810Z,18.57
2022-09-12T07:49:08.449Z,18.28
2022-09-12T07:51:36.543Z,18.18
2022-09-12T07:54:09.275Z,18.47
2022-09-12T07:56:39.323Z,18.54
2022-09-12T07:59:07.820Z,18.49
2022-09-12T08:01:36.299Z,18.66
2022-09-12T08:04:05.274Z,18.61
2022-09-12T08:06:36.081Z,18.83
2022-09-12T08:09:05.717Z,18.88
2022-09-12T08:11:33.616Z,18.76
2022-09-12T08:14:03.054Z,18.69
2022-09-12T08:16:33.117Z,18.88
2022-09-12T08:19:02.260Z,18.75
2022-09-12T08:21:31.802Z,18.71
2022-09-12T08:24:03.317Z,18.79
2022-09-12T08:26:31.936Z,18.87
2022-09-12T08:29:00.546Z,18.79
2022-09-12T08:31:29.431Z,18.88
2022-09-12T08:33:58.678Z,19.26
2022-09-12T08:36:29.574Z,19.12
2022-09-12T08:39:00.397Z,19.28
2022-09-12T08:41:34.845Z,19.42
2022-09-12T08:44:19.866Z,19.39
2022-09-12T08:47:01.919Z,19.33
2022-09-12T08:49:33.733Z,19.27
2022-09-12T08:52:08.088Z,19.18
2022-09-12T08:54:36.199Z,19.40
2022-09-12T08:57:07.762Z,19.10
2022-09-12T08:59:39.542Z,19.58
2022-09-12T09:02:30.596Z,19.69
2022-09-12T09:05:06.416Z,19.77
2022-09-12T09:08:05.458Z,19.93
2022-09-12T09:10:42.152Z,19.87
2022-09-12T09:13:39.501Z,20.12
2022-09-12T09:16:11.979Z,19.70
2022-09-12T09:18:41.265Z,19.89
2022-09-12T09:21:21.652Z,19.84
2022-09-12T09:23:54.944Z,19.86
2022-09-12T09:26:26.730Z,20.18
2022-09-12T09:29:03.386Z,20.24
2022-09-12T09:31:35.344Z,20.19
2022-09-12T09:34:07.009Z,20.32
2022-09-12T09:36:44.024Z,20.17
2022-09-12T09:39:22.003Z,20.40
2022-09-12T09:42:00.783Z,20.18
2022-09-12T09:44:30.849Z,20.45
2022-09-12T09:47:00.772Z,20.37
2022-09-12T09:49:32.283Z,20.32
2022-09-12T09:52:02.005Z,21.01
2022-09-12T09:54:35.415Z,20.94
2022-09-12T09:57:05.072Z,20.95
2022-09-12T09:59:35.166Z,21.07
2022-09-12T10:02:24.028Z,21.06
2022-09-12T10:04:56.228Z,21.39
2022-09-12T10:07:25.594Z,21.41
2022-09-12T10:10:07.758Z,20.95
2022-09-12T10:12:36.357Z,22.04
2022-09-12T10:15:19.392Z,22.62
2022-09-12T10:17:49.805Z,22.85
2022-09-12T10:20:32.402Z,23.01
2022-09-12T10:23:02.358Z,24.20
2022-09-12T10:25:31.093Z,24.61
2022-09-12T10:28:03.003Z,24.86
2022-09-12T10:30:33.009Z,25.17
2022-09-12T10:33:10.073Z,25.18
2022-09-12T10:35:47.266Z,25.03
2022-09-12T10:38:22.865Z,25.62
2022-09-12T10:40:59.364Z,25.37
2022-09-12T10:43:33.659Z,23.88
2022-09-12T10:46:31.151Z,23.22
2022-09-12T10:49:26.489Z,22.84
2022-09-12T10:51:55.975Z,22.42
2022-09-12T10:54:27.391Z,22.31
2022-09-12T10:57:14.674Z,22.23
2022-09-12T10:59:59.776Z,22.30
2022-09-12T11:02:35.672Z,22.34
2022-09-12T11:05:11.841Z,22.36
2022-09-12T11:07:45.153Z,22.14
2022-09-12T11:10:19.237Z,22.33
2022-09-12T11:12:54.408Z,21.94
2022-09-12T11:15:40.764Z,22.21
2022-09-12T11:18:20.888Z,22.15
2022-09-12T11:21:03.063Z,22.01
2022-09-12T11:23:53.590Z,22.02
2022-09-12T11:26:32.494Z,22.00
2022-09-12T11:29:10.951Z,21.87
2022-09-12T11:31:57.407Z,21.81
2022-09-12T11:34:38.746Z,21.83
2022-09-12T11:37:29.039Z,22.32
2022-09-12T11:40:00.565Z,23.29
2022-09-12T11:42:34.288Z,23.06
2022-09-12T11:45:09.144Z,23.11
2022-09-12T11:47:38.503Z,23.47
2022-09-12T11:50:26.680Z,23.92
2022-09-12T11:53:00.078Z,23.97
2022-09-12T11:55:30.421Z,24.53
2022-09-12T11:57:59.518Z,24.39
2022-09-12T12:00:33.208Z,24.73
2022-09-12T12:03:10.173Z,24.69
2022-09-12T12:05:47.498Z,25.25
2022-09-12T12:08:15.966Z,24.58
2022-09-12T12:10:49.892Z,25.08
2022-09-12T12:13:21.000Z,24.58
2022-09-12T12:15:51.823Z,24.51
2022-09-12T12:18:23.821Z,24.39
2022-09-12T12:20:54.405Z,24.66
2022-09-12T12:23:28.534Z,24.50
2022-09-12T12:25:57.872Z,24.64
2022-09-12T12:29:01.870Z,24.86
2022-09-12T12:31:29.744Z,25.13
2022-09-12T12:34:28.881Z,25.14
2022-09-12T12:36:59.120Z,24.52
2022-09-12T12:40:01.130Z,24.38
2022-09-12T12:43:07.542Z,24.61
2022-09-12T12:46:12.934Z,24.38
2022-09-12T12:49:07.030Z,24.29
2022-09-12T12:52:02.593Z,24.50
2022-09-12T12:54:50.089Z,24.26
2022-09-12T12:57:29.891Z,24.18
2022-09-12T13:00:02.406Z,24.16
2022-09-12T13:02:35.839Z,23.77
2022-09-12T13:05:08.699Z,24.05
2022-09-12T13:07:41.537Z,24.13
2022-09-12T13:10:11.601Z,24.11
2022-09-12T13:12:47.347Z,23.87
2022-09-12T13:15:49.791Z,24.00
2022-09-12T13:18:25.191Z,24.18
2022-09-12T13:20:59.483Z,23.92
2022-09-12T13:23:33.660Z,23.82
2022-09-12T13:26:03.705Z,23.69
2022-09-12T13:28:32.620Z,23.91
2022-09-12T13:31:04.031Z,23.75
2022-09-12T13:33:42.377Z,23.76
2022-09-12T13:36:38.471Z,23.72
2022-09-12T13:39:17.328Z,23.67
2022-09-12T13:42:09.249Z,23.68
2022-09-12T13:44:44.066Z,23.74
2022-09-12T13:47:16.631Z,23.44
2022-09-12T13:49:46.356Z,23.58
2022-09-12T13:52:20.653Z,23.47
2022-09-12T13:54:53.107Z,23.49
2022-09-12T13:57:33.687Z,23.60
2022-09-12T14:00:05.909Z,23.42
2022-09-12T14:02:36.771Z,23.27
2022-09-12T14:05:13.251Z,23.39
2022-09-12T14:07:55.005Z,23.39
2022-09-12T14:10:29.182Z,23.50
2022-09-12T14:12:58.755Z,23.44
2022-09-12T14:15:29.957Z,23.55
2022-09-12T14:17:59.707Z,23.53
2022-09-12T14:20:31.112Z,23.72
2022-09-12T14:23:02.684Z,23.69
2022-09-12T14:25:39.049Z,23.46
2022-09-12T14:28:07.650Z,23.42
2022-09-12T14:30:37.422Z,23.39
2022-09-12T14:33:21.956Z,23.22
2022-09-12T14:35:51.697Z,23.31
2022-09-12T14:38:25.625Z,23.33
2022-09-12T14:41:02.436Z,23.60
2022-09-12T14:43:32.336Z,23.41
2022-09-12T14:46:03.235Z,23.45
2022-09-12T14:48:34.449Z,23.23
2022-09-12T14:51:02.537Z,23.24
2022-09-12T14:53:35.149Z,23.40
2022-09-12T14:56:12.616Z,23.26
2022-09-12T14:58:41.447Z,23.13
2022-09-12T15:01:33.190Z,23.27
2022-09-12T15:04:01.130Z,23.28
2022-09-12T15:06:31.197Z,23.32
2022-09-12T15:09:01.257Z,23.33
2022-09-12T15:11:30.495Z,22.97
2022-09-12T15:13:58.328Z,23.01
2022-09-12T15:16:26.376Z,23.11
2022-09-12T15:18:54.251Z,22.95
2022-09-12T15:21:22.506Z,23.14
2022-09-12T15:23:51.868Z,23.14
2022-09-12T15:26:22.509Z,23.12
2022-09-12T15:28:52.396Z,23.07
2022-09-12T15:31:25.248Z,22.94
2022-09-12T15:33:53.500Z,22.87
2022-09-12T15:36:22.897Z,22.95
2022-09-12T15:38:51.684Z,22.90
2022-09-12T15:41:21.800Z,22.88
2022-09-12T15:43:51.735Z,22.63
2022-09-12T15:46:20.212Z,22.73
2022-09-12T15:48:48.190Z,22.78
2022-09-12T15:51:17.780Z,23.01
2022-09-12T15:53:46.609Z,22.92
2022-09-12T15:56:15.739Z,23.05
2022-09-12T15:58:57.735Z,22.81
2022-09-12T16:01:29.355Z,22.79
2022-09-12T16:03:57.421Z,22.81
2022-09-12T16:06:25.287Z,22.92
2022-09-12T16:08:53.284Z,22.82
2022-09-12T16:11:23.104Z,22.71
2022-09-12T16:13:52.612Z,22.76
2022-09-12T16:16:20.838Z,22.87
2022-09-12T16:18:50.224Z,22.82
2022-09-12T16:21:18.074Z,22.41
2022-09-12T16:23:46.252Z,22.56
2022-09-12T16:26:14.369Z,22.40
2022-09-12T16:28:42.609Z,22.49
2022-09-12T16:31:13.155Z,22.45
2022-09-12T16:33:41.783Z,22.50
2022-09-12T16:36:13.133Z,22.55
2022-09-12T16:38:45.460Z,22.59
2022-09-12T16:41:14.163Z,22.39
2022-09-12T16:43:42.793Z,22.47
2022-09-12T16:46:13.418Z,22.47
2022-09-12T16:48:49.326Z,22.31
2022-09-12T16:51:22.946Z,22.33
2022-09-12T16:53:51.461Z,22.38
2022-09-12T16:56:19.765Z,22.27
2022-09-12T16:58:48.025Z,22.32
2022-09-12T17:01:18.799Z,22.32
2022-09-12T17:03:47.094Z,22.21
2022-09-12T17:06:16.654Z,22.07
2022-09-12T17:08:47.974Z,22.06
2022-09-12T17:11:18.516Z,21.98
2022-09-12T17:14:03.694Z,22.00
2022-09-12T17:16:34.116Z,21.92
2022-09-12T17:19:02.028Z,21.94
2022-09-12T17:21:29.941Z,21.95
2022-09-12T17:23:59.971Z,21.98
2022-09-12T17:26:28.301Z,21.94
2022-09-12T17:28:56.161Z,21.90
2022-09-12T17:31:24.202Z,21.88
2022-09-12T17:33:56.407Z,21.84
2022-09-12T17:36:24.311Z,21.80
2022-09-12T17:38:54.174Z,21.79
2022-09-12T17:41:25.367Z,21.74
2022-09-12T17:43:57.135Z,21.62
2022-09-12T17:46:27.360Z,21.56
2022-09-12T17:48:56.682Z,21.58
2022-09-12T17:51:25.953Z,21.55
2022-09-12T17:53:59.051Z,21.55
2022-09-12T17:56:29.553Z,21.44
2022-09-12T17:58:57.979Z,21.45
2022-09-12T18:01:44.524Z,21.36
2022-09-12T18:04:12.409Z,21.35
2022-09-12T18:06:40.854Z,21.27
2022-09-12T18:09:10.505Z,21.34
2022-09-12T18:11:39.802Z,21.31
2022-09-12T18:14:11.331Z,21.27
2022-09-12T18:16:41.442Z,21.19
2022-09-12T18:19:09.338Z,21.19
2022-09-12T18:21:37.341Z,21.19
2022-09-12T18:24:05.663Z,21.20
2022-09-12T18:26:34.502Z,21.17
2022-09-12T18:29:03.729Z,21.19
2022-09-12T18:31:32.017Z,21.11
2022-09-12T18:34:01.073Z,21.10
2022-09-12T18:38:58.653Z,21.02
2022-09-12T18:41:28.799Z,20.97
2022-09-12T18:43:58.110Z,20.91
2022-09-12T18:46:29.292Z,20.91
2022-09-12T18:48:58.391Z,20.85
2022-09-12T18:51:31.333Z,20.83
2022-09-12T18:54:01.310Z,20.80
2022-09-12T18:56:32.883Z,20.80
2022-09-12T18:59:02.729Z,20.78
2022-09-12T19:01:33.269Z,20.73
2022-09-12T19:04:04.664Z,20.68
2022-09-12T19:06:34.208Z,20.62
2022-09-12T19:09:07.421Z,20.59
2022-09-12T19:11:37.344Z,20.51
2022-09-12T19:14:05.841Z,20.48
2022-09-12T19:16:35.959Z,20.44
2022-09-12T19:19:04.037Z,20.36
2022-09-12T19:21:33.068Z,20.33
2022-09-12T19:24:02.396Z,20.31
2022-09-12T19:26:30.530Z,20.19
2022-09-12T19:28:58.568Z,20.13
2022-09-12T19:31:26.798Z,20.09
2022-09-12T19:34:01.605Z,20.11
2022-09-12T19:36:46.698Z,20.09
2022-09-12T19:39:16.450Z,20.00
2022-09-12T19:41:44.386Z,19.97
2022-09-12T19:44:12.641Z,20.00
2022-09-12T19:46:40.780Z,19.93
2022-09-12T19:49:11.305Z,19.94
2022-09-12T19:51:39.244Z,19.87
2022-09-12T19:54:07.741Z,19.86
2022-09-12T19:56:35.973Z,19.91
2022-09-12T19:59:03.869Z,19.81
2022-09-12T20:01:32.461Z,19.82
2022-09-12T20:04:00.509Z,19.85
2022-09-12T20:06:29.898Z,19.67
2022-09-12T20:08:57.995Z,19.73
2022-09-12T20:11:26.021Z,19.69
2022-09-12T20:13:53.999Z,19.72
2022-09-12T20:16:24.473Z,19.71
2022-09-12T20:18:57.327Z,19.59
2022-09-12T20:21:31.243Z,19.65
2022-09-12T20:24:06.369Z,19.63
2022-09-12T20:26:34.923Z,19.63
2022-09-12T20:29:03.279Z,19.71
2022-09-12T20:31:32.025Z,19.75
2022-09-12T20:34:00.071Z,19.72
2022-09-12T20:36:28.004Z,19.44
2022-09-12T20:38:57.937Z,19.44
2022-09-12T20:41:28.889Z,19.47
2022-09-12T20:43:58.182Z,19.65
2022-09-12T20:46:27.519Z,19.67
2022-09-12T20:48:55.833Z,19.54
2022-09-12T20:51:24.574Z,19.53
2022-09-12T20:53:54.346Z,19.62
2022-09-12T20:56:22.681Z,19.56
2022-09-12T20:58:52.135Z,19.36
2022-09-12T21:01:20.672Z,19.42
2022-09-12T21:03:49.667Z,19.29
2022-09-12T21:06:18.816Z,19.34
2022-09-12T21:08:47.848Z,19.39
2022-09-12T21:11:16.419Z,19.27
2022-09-12T21:13:44.740Z,19.38
2022-09-12T21:16:15.482Z,19.38
2022-09-12T21:18:43.672Z,19.16
2022-09-12T21:21:13.086Z,19.10
2022-09-12T21:23:41.506Z,19.16
2022-09-12T21:26:09.730Z,19.01
2022-09-12T21:28:37.673Z,19.02
2022-09-12T21:31:06.058Z,19.04
2022-09-12T21:33:35.614Z,19.12
2022-09-12T21:36:04.701Z,19.11
2022-09-12T21:38:33.089Z,19.12
2022-09-12T21:41:06.368Z,18.96
2022-09-12T21:43:34.259Z,19.11
2022-09-12T21:46:03.018Z,18.99
2022-09-12T21:48:31.261Z,19.09
2022-09-12T21:51:00.890Z,18.98
2022-09-12T21:53:29.202Z,19.09
2022-09-12T21:56:01.890Z,18.79
2022-09-12T21:58:29.751Z,18.98
2022-09-12T22:00:57.808Z,18.91
2022-09-12T22:03:26.019Z,18.86
2022-09-12T22:05:58.049Z,18.77
2022-09-12T22:08:27.682Z,18.80
2022-09-12T22:11:00.472Z,18.69
2022-09-12T22:13:28.536Z,18.83
2022-09-12T22:15:56.984Z,18.75
2022-09-12T22:18:24.977Z,18.88
2022-09-12T22:20:59.943Z,18.63
2022-09-12T22:23:46.649Z,18.58
2022-09-12T22:26:15.566Z,18.68
2022-09-12T22:28:43.933Z,18.56
2022-09-12T22:31:12.673Z,18.60
2022-09-12T22:33:41.331Z,18.58
2022-09-12T22:36:10.193Z,18.55
2022-09-12T22:38:39.809Z,18.55
2022-09-12T22:41:09.196Z,18.46
2022-09-12T22:43:37.421Z,18.45
2022-09-12T22:46:07.621Z,18.56
2022-09-12T22:48:35.686Z,18.45
2022-09-12T22:51:03.533Z,18.41
2022-09-12T22:53:31.444Z,18.34
2022-09-12T22:56:00.635Z,18.22
2022-09-12T22:58:28.486Z,18.37
2022-09-12T23:00:56.394Z,18.19
2022-09-12T23:03:24.316Z,18.36
2022-09-12T23:05:52.405Z,18.37
2022-09-12T23:08:20.353Z,18.28
2022-09-12T23:10:48.190Z,18.17
2022-09-12T23:13:17.763Z,18.39
2022-09-12T23:15:45.578Z,18.34
2022-09-12T23:18:13.407Z,18.22
2022-09-12T23:20:41.243Z,18.32
2022-09-12T23:23:09.655Z,18.47
2022-09-12T23:25:37.965Z,18.41
2022-09-12T23:28:05.780Z,18.33
2022-09-12T23:30:34.953Z,18.32
2022-09-12T23:33:02.778Z,18.24
2022-09-12T23:35:30.614Z,18.25
2022-09-12T23:37:58.454Z,18.28
2022-09-12T23:40:26.330Z,18.14
2022-09-12T23:42:54.583Z,18.03
2022-09-12T23:45:22.490Z,18.08
2022-09-12T23:47:51.722Z,18.10
2022-09-12T23:50:19.560Z,18.02
2022-09-12T23:52:47.360Z,17.94
2022-09-12T23:55:15.221Z,17.92
2022-09-12T23:57:43.701Z,17.94
